Time;durP1;ratioP1;P1;durP2;ratioP2;P2;SDS_P1;SDS_P2;PMS_P1;PMS_P2;Temp;Humidity;BMP_temperature;BMP_pressure;BME280_temperature;BME280_humidity;BME280_pressure;Samples;Min_cycle;Max_cycle;Signal;HPM_P1;HPM_P2
2023/02/02 06:28:55;;;;;;;;;4.25;2.75;;;;;7.81;100.00;102780.16;5880789;23;46770;-72
2023/02/02 06:31:21;;;;;;;;;6.00;5.50;;;;;6.86;100.00;102662.56;4914925;28;49603;-78
2023/02/02 06:33:51;;;;;;;;;5.00;3.00;;;;;6.90;100.00;102650.59;4919790;28;50862;-75
2023/02/02 06:36:17;;;;;;;;;6.75;3.00;;;;;7.90;100.00;102819.97;4914307;28;49889;-73
2023/02/02 06:38:47;;;;;;;;;7.50;5.50;;;;;7.30;100.00;102692.34;4915925;28;49739;-76
2023/02/02 06:41:12;;;;;;;;;4.75;4.25;;;;;7.99;100.00;102816.22;4915660;28;50175;-73
2023/02/02 06:43:37;;;;;;;;;2.00;1.25;;;;;6.62;100.00;102619.16;4915307;28;50733;-72
2023/02/02 06:46:03;;;;;;;;;3.00;3.00;;;;;7.11;100.00;102656.31;4915777;28;51155;-81
2023/02/02 06:48:28;;;;;;;;;7.75;5.00;;;;;6.71;100.00;102611.94;4915379;28;50293;-75
2023/02/02 06:50:57;;;;;;;;;3.75;3.75;;;;;6.96;100.00;102644.88;4915709;28;49742;-75
2023/02/02 06:53:23;;;;;;;;;5.00;1.25;;;;;6.90;100.00;102650.59;4915263;28;49883;-77
2023/02/02 06:55:53;;;;;;;;;7.75;3.00;;;;;7.19;100.00;102668.16;4912319;28;49645;-73
2023/02/02 06:58:18;;;;;;;;;7.50;5.00;;;;;7.94;100.00;102801.97;4913396;28;49719;-78
2023/02/02 07:00:44;;;;;;;;;4.50;4.00;;;;;7.22;100.00;102689.25;4915720;28;50257;-76
2023/02/02 07:03:09;;;;;;;;;1.50;1.50;;;;;7.07;100.00;102693.47;4915499;28;58766;-87
2023/02/02 07:05:34;;;;;;;;;8.75;2.00;;;;;8.15;100.00;102822.44;4915790;28;49746;-70
2023/02/02 07:08:00;;;;;;;;;5.25;3.50;;;;;8.10;100.00;102813.38;4916066;28;49773;-78
2023/02/02 07:10:25;;;;;;;;;2.00;2.00;;;;;7.94;100.00;102787.97;4908911;28;50044;-75
2023/02/02 07:12:53;;;;;;;;;6.50;4.00;;;;;8.06;100.00;102814.91;4900860;28;50458;-74
2023/02/02 07:15:18;;;;;;;;;4.00;1.25;;;;;7.74;100.00;102757.94;4905001;28;50300;-76
2023/02/02 07:17:44;;;;;;;;;5.75;5.00;;;;;8.33;100.00;102869.00;4905624;28;49932;-66
2023/02/02 07:20:09;;;;;;;;;5.75;2.00;;;;;8.13;100.00;102829.28;4905079;28;49901;-70
2023/02/02 07:22:37;;;;;;;;;2.00;2.00;;;;;7.83;100.00;102778.56;4906014;28;50882;-73
2023/02/02 07:25:03;;;;;;;;;4.50;2.25;;;;;7.61;100.00;102773.63;4903235;28;49933;-72
2023/02/02 07:27:28;;;;;;;;;1.00;1.00;;;;;6.99;100.00;102622.47;4904736;28;50477;-73
2023/02/02 07:29:54;;;;;;;;;6.00;4.75;;;;;8.06;100.00;102825.38;4904266;28;49986;-70
2023/02/02 07:32:19;;;;;;;;;5.25;3.25;;;;;7.21;100.00;102724.00;4904604;28;49948;-72
2023/02/02 07:34:45;;;;;;;;;6.75;5.50;;;;;7.96;100.00;102807.28;4904893;28;49882;-73
2023/02/02 07:37:10;;;;;;;;;7.75;6.00;;;;;7.59;100.00;102730.81;4907311;28;50176;-73
2023/02/02 07:39:35;;;;;;;;;5.00;5.00;;;;;7.31;100.00;102692.44;4912212;28;49862;-74
2023/02/02 07:42:01;;;;;;;;;6.75;3.25;;;;;6.87;100.00;102638.25;4913865;28;49782;-73
2023/02/02 07:44:26;;;;;;;;;4.75;3.00;;;;;6.96;100.00;102648.41;4914107;28;49581;-72
2023/02/02 07:46:51;;;;;;;;;8.25;3.75;;;;;8.14;100.00;102821.53;4914424;28;49984;-74
2023/02/02 07:49:18;;;;;;;;;7.25;5.75;;;;;8.18;100.00;102814.78;4914297;28;49861;-73
2023/02/02 07:51:44;;;;;;;;;5.75;3.00;;;;;8.13;100.00;102822.34;4914306;28;49983;-73
2023/02/02 07:54:10;;;;;;;;;5.75;4.25;;;;;8.59;100.00;102893.34;4913825;28;49997;-74
2023/02/02 07:56:36;;;;;;;;;9.75;5.75;;;;;7.45;100.00;102709.94;4913735;28;49601;-74
2023/02/02 07:59:02;;;;;;;;;3.50;3.00;;;;;8.22;100.00;102812.47;4914327;28;49737;-77
2023/02/02 08:01:28;;;;;;;;;4.00;3.75;;;;;8.68;100.00;102899.13;4907823;28;49954;-76
2023/02/02 08:03:55;;;;;;;;;7.00;7.00;;;;;8.74;100.00;102906.47;4913565;28;49862;-76
2023/02/02 08:06:30;;;;;;;;;6.50;3.00;;;;;8.73;100.00;102895.09;4914149;28;50049;-76
2023/02/02 08:08:56;;;;;;;;;2.75;2.75;;;;;8.03;100.00;102778.09;4912094;28;49948;-77
2023/02/02 08:11:23;;;;;;;;;1.00;1.00;;;;;7.33;100.00;102661.19;4912954;28;50688;-74
2023/02/02 08:13:54;;;;;;;;;2.25;1.50;;;;;7.59;100.00;102686.38;4912398;28;50059;-70
2023/02/02 08:16:21;;;;;;;;;4.75;4.75;;;;;8.76;100.00;102884.78;4912336;28;49980;-70
2023/02/02 08:18:47;;;;;;;;;5.75;5.75;;;;;8.69;100.00;102873.88;4912291;28;50147;-78
2023/02/02 08:21:13;;;;;;;;;3.00;2.00;;;;;8.76;100.00;102884.78;4913765;28;50796;-69
2023/02/02 08:23:40;;;;;;;;;6.00;3.00;;;;;8.09;100.00;102769.72;4913422;28;49640;-73
2023/02/02 08:26:07;;;;;;;;;6.25;2.25;;;;;8.39;100.00;102813.53;4913239;28;49723;-74
2023/02/02 08:28:34;;;;;;;;;1.50;1.50;;;;;8.65;100.00;102872.75;4913191;28;49866;-70
2023/02/02 08:31:04;;;;;;;;;5.75;3.00;;;;;7.94;100.00;102746.16;4912875;28;49865;-73
2023/02/02 08:33:29;;;;;;;;;2.00;2.00;;;;;7.61;100.00;102696.13;4913191;28;49652;-73
2023/02/02 08:35:55;;;;;;;;;2.25;2.00;;;;;8.58;100.00;102833.91;4913488;28;50000;-73
2023/02/02 08:38:22;;;;;;;;;6.00;5.00;;;;;7.99;100.00;102765.63;4913124;28;49590;-72
2023/02/02 08:40:48;;;;;;;;;5.50;4.25;;;;;7.76;100.00;102688.34;4920782;28;51313;-72
2023/02/02 08:43:13;;;;;;;;;5.25;3.50;;;;;9.07;100.00;102923.34;4912941;28;49979;-71
2023/02/02 08:45:42;;;;;;;;;4.50;4.25;;;;;8.54;100.00;102824.06;4912820;28;50031;-72
2023/02/02 08:48:07;;;;;;;;;7.00;3.00;;;;;9.03;100.00;102940.59;4913103;28;49616;-72
2023/02/02 08:50:32;;;;;;;;;1.00;1.00;;;;;7.58;100.00;102643.66;4912974;28;50092;-72
2023/02/02 08:52:58;;;;;;;;;7.00;3.00;;;;;8.06;100.00;102753.84;4913382;28;50017;-72
2023/02/02 08:55:23;;;;;;;;;5.25;3.00;;;;;8.42;100.00;102826.84;4913399;28;49854;-71
2023/02/02 08:57:48;;;;;;;;;2.50;2.00;;;;;8.92;100.00;102864.78;4916007;28;49863;-72
2023/02/02 09:00:17;;;;;;;;;3.75;3.75;;;;;8.55;100.00;102790.13;4912544;28;50557;-73
2023/02/02 09:02:43;;;;;;;;;1.00;1.00;;;;;9.38;100.00;102932.28;4912864;28;49792;-73
2023/02/02 09:05:08;;;;;;;;;5.25;3.50;;;;;9.25;100.00;102898.25;4913254;28;49948;-73
2023/02/02 09:07:34;;;;;;;;;5.25;4.25;;;;;8.99;100.00;102852.16;4913103;28;49993;-73
2023/02/02 09:09:59;;;;;;;;;7.25;4.00;;;;;8.33;100.00;102742.47;4912768;28;49893;-72
2023/02/02 09:12:25;;;;;;;;;6.00;5.50;;;;;8.54;100.00;102788.31;4912770;28;50113;-72
2023/02/02 09:14:50;;;;;;;;;3.75;3.00;;;;;8.86;100.00;102845.25;4912455;28;49929;-72
2023/02/02 09:17:16;;;;;;;;;4.00;3.50;;;;;7.96;100.00;102661.72;4912835;28;50069;-70
2023/02/02 09:19:41;;;;;;;;;3.25;2.00;;;;;8.44;100.00;102733.59;4913040;28;49786;-70
2023/02/02 09:22:06;;;;;;;;;14.50;12.00;;;;;8.21;100.00;102732.16;4912661;28;49663;-70
2023/02/02 09:24:32;;;;;;;;;44.75;38.25;;;;;9.58;100.00;102924.69;4912962;28;50144;-74
2023/02/02 09:26:57;;;;;;;;;21.00;21.00;;;;;9.44;100.00;102898.53;4912241;28;49872;-71
2023/02/02 09:29:25;;;;;;;;;4.50;4.25;;;;;8.44;100.00;102722.22;4911666;28;50815;-82
2023/02/02 09:31:50;;;;;;;;;3.75;3.75;;;;;9.45;100.00;102900.34;4912184;28;50254;-73
2023/02/02 09:34:16;;;;;;;;;3.75;3.50;;;;;9.83;100.00;102969.91;4917884;28;49901;-68
2023/02/02 09:36:43;;;;;;;;;8.00;5.25;;;;;9.25;100.00;102844.94;4912153;28;49988;-69
2023/02/02 09:39:11;;;;;;;;;4.00;3.00;;;;;9.58;100.00;102901.09;4912014;28;50057;-71
2023/02/02 09:41:36;;;;;;;;;5.50;3.00;;;;;9.97;100.00;102970.72;4915343;28;49772;-72
2023/02/02 09:44:23;;;;;;;;;4.50;4.50;;;;;10.01;100.00;102963.09;4918846;28;50006;-67
2023/02/02 09:47:07;;;;;;;;;4.50;3.00;;;;;9.65;100.00;102909.41;4912083;28;49870;-71
2023/02/02 09:49:51;;;;;;;;;5.25;3.00;;;;;10.10;100.00;102977.56;4928332;28;49684;-68
2023/02/02 09:52:24;;;;;;;;;5.50;3.00;;;;;10.09;100.00;102981.03;4915310;28;49829;-66
2023/02/02 09:54:53;;;;;;;;;5.25;2.50;;;;;9.50;100.00;102863.03;4915499;28;49764;-67
2023/02/02 09:57:27;;;;;;;;;4.00;2.50;;;;;9.81;100.00;102920.78;4915818;28;50108;-70
2023/02/02 09:59:53;;;;;;;;;6.00;6.00;;;;;10.12;100.00;102955.84;4910116;28;50856;-73
2023/02/02 10:02:48;;;;;;;;;5.00;5.00;;;;;10.26;100.00;102985.56;4914891;28;49931;-70
2023/02/02 10:05:19;;;;;;;;;3.50;2.50;;;;;8.88;100.00;102779.91;4915069;28;50071;-70
2023/02/02 10:07:50;;;;;;;;;3.00;2.00;;;;;10.10;100.00;102954.84;4915875;28;50221;-68
2023/02/02 10:10:27;;;;;;;;;5.00;4.00;;;;;9.60;100.00;102862.75;4915310;28;49863;-69
2023/02/02 10:12:58;;;;;;;;;5.25;3.50;;;;;9.85;100.00;102880.81;4915498;28;49915;-76
2023/02/02 10:15:41;;;;;;;;;6.75;3.75;;;;;9.18;100.00;102758.13;4914372;28;50003;-73
2023/02/02 10:18:18;;;;;;;;;59.25;48.75;;;;;9.12;100.00;102794.44;4915303;28;50078;-72
2023/02/02 10:20:53;;;;;;;;;131.33;114.33;;;;;9.58;100.00;102852.19;4915230;28;49795;-73
2023/02/02 10:23:24;;;;;;;;;7.00;7.00;;;;;10.62;100.00;102992.00;4915078;28;49731;-74
2023/02/02 10:26:03;;;;;;;;;14.25;10.75;;;;;8.87;100.00;102702.09;4915364;28;49974;-71
2023/02/02 10:28:43;;;;;;;;;7.00;5.50;;;;;10.55;100.00;102958.31;4915271;28;49786;-68
2023/02/02 10:31:34;;;;;;;;;3.50;3.50;;;;;10.55;100.00;102946.09;4915000;28;49867;-69
2023/02/02 10:34:49;;;;;;;;;4.00;3.75;;;;;10.80;100.00;102966.72;4913211;28;49895;-70
2023/02/02 10:37:23;;;;;;;;;3.25;2.75;;;;;11.02;100.00;102984.59;4878676;28;49920;-69
2023/02/02 10:40:36;;;;;;;;;15.25;7.75;;;;;11.06;100.00;102991.81;4915178;28;50095;-70
2023/02/02 10:43:47;;;;;;;;;3.75;3.75;;;;;10.31;100.00;102837.06;4893105;29;50037;-68
2023/02/02 10:46:26;;;;;;;;;3.00;3.00;;;;;10.82;100.00;102935.31;4913604;28;50122;-73
2023/02/02 10:49:09;;;;;;;;;2.50;2.50;;;;;10.98;100.00;102972.09;4914996;28;49669;-73
2023/02/02 10:51:35;;;;;;;;;2.25;2.25;;;;;11.03;100.00;102964.47;4915281;28;50006;-72
2023/02/02 10:54:10;;;;;;;;;2.50;2.50;;;;;11.31;100.00;103030.84;4914879;28;49873;-74
2023/02/02 10:56:44;;;;;;;;;4.00;3.00;;;;;9.61;100.00;102705.50;4914991;28;49854;-75
2023/02/02 10:59:18;;;;;;;;;3.25;2.75;;;;;10.70;100.00;102864.59;4914443;28;49815;-71
2023/02/02 11:01:44;;;;;;;;;4.75;3.00;;;;;11.24;100.00;102944.56;4914834;28;49876;-73
2023/02/02 11:06:54;;;;;;;;;4.00;2.00;;;;;11.37;100.00;102936.50;4914773;28;49982;-79
2023/02/02 11:09:23;;;;;;;;;5.50;3.50;;;;;10.73;100.00;102814.88;4914142;28;50325;-69
2023/02/02 11:11:53;;;;;;;;;4.75;3.50;;;;;10.88;100.00;102838.41;4914851;28;49843;-71
2023/02/02 11:14:55;;;;;;;;;2.00;2.00;;;;;11.65;100.00;102937.91;4913769;28;51241;-70
2023/02/02 11:17:24;;;;;;;;;2.25;2.25;;;;;10.72;100.00;102801.66;4901412;28;49884;-73
2023/02/02 11:19:51;;;;;;;;;2.00;1.00;;;;;11.50;100.00;102921.38;4914430;28;49827;-73
2023/02/02 11:22:29;;;;;;;;;1.00;1.00;;;;;10.96;100.00;102802.91;4914906;28;49788;-79
2023/02/02 11:24:59;;;;;;;;;1.50;1.00;;;;;12.03;100.00;102979.38;4914486;28;49688;-72
2023/02/02 11:27:32;;;;;;;;;1.25;0.75;;;;;10.91;100.00;102787.75;4914286;28;50065;-73
2023/02/02 11:30:08;;;;;;;;;0.25;0.00;;;;;11.37;100.00;102865.50;4914042;28;50001;-77
2023/02/02 11:32:34;;;;;;;;;3.50;3.50;;;;;11.12;100.00;102821.28;4914259;28;49810;-72
2023/02/02 11:35:05;;;;;;;;;1.00;1.00;;;;;12.26;100.00;102968.25;4914143;28;50764;-71
2023/02/02 11:37:33;;;;;;;;;85.50;67.50;;;;;11.54;100.00;102833.88;4914412;28;49842;-69
2023/02/02 11:40:37;;;;;;;;;43.50;38.50;;;;;12.36;100.00;102956.44;4914343;28;50141;-69
2023/02/02 11:43:14;;;;;;;;;31.75;28.00;;;;;11.79;100.00;102847.44;4914511;28;49859;-68
2023/02/02 11:45:42;;;;;;;;;3.00;1.00;;;;;12.24;100.00;102917.22;4914278;28;49856;-68
2023/02/02 11:48:18;;;;;;;;;2.50;1.50;;;;;12.46;100.00;102948.16;4914197;28;49830;-70
2023/02/02 11:50:51;;;;;;;;;1.50;1.50;;;;;12.48;100.00;102946.47;4914681;28;50054;-65
2023/02/02 11:53:23;;;;;;;;;2.50;0.75;;;;;12.16;100.00;102886.06;4914626;28;49645;-65
2023/02/02 11:55:50;;;;;;;;;2.25;2.25;;;;;12.24;100.00;102875.09;4908141;28;50778;-69
2023/02/02 11:58:19;;;;;;;;;1.25;1.25;;;;;12.59;100.00;102939.97;4906723;28;50051;-71
2023/02/02 12:00:46;;;;;;;;;1.00;1.00;;;;;12.36;100.00;102869.53;4907878;28;49760;-67
2023/02/02 12:03:24;;;;;;;;;0.25;0.25;;;;;12.14;100.00;102820.19;4906868;28;50185;-65
2023/02/02 12:05:50;;;;;;;;;1.00;0.00;;;;;12.02;100.00;102807.34;4914354;28;50272;-65
2023/02/02 12:08:15;;;;;;;;;2.00;1.00;;;;;12.33;100.00;102829.84;4912749;28;49844;-66
2023/02/02 12:10:50;;;;;;;;;0.25;0.25;;;;;12.83;100.00;102916.47;4914030;28;50320;-67
2023/02/02 12:13:43;;;;;;;;;3.50;1.00;;;;;12.87;100.00;102913.19;4913952;28;49694;-66
2023/02/02 12:16:37;;;;;;;;;1.75;1.25;;;;;12.98;100.00;102929.47;4914018;28;49976;-66
2023/02/02 12:19:29;;;;;;;;;1.50;1.50;;;;;12.85;100.00;102898.13;4912833;28;49759;-66
2023/02/02 12:22:20;;;;;;;;;1.00;0.00;;;;;12.99;100.00;102914.56;4911087;28;50002;-65
2023/02/02 12:25:27;;;;;;;;;2.00;1.00;;;;;13.06;100.00;102932.47;4914171;28;49801;-66
2023/02/02 12:27:52;;;;;;;;;1.50;1.00;;;;;13.12;100.00;102927.44;4906229;28;49778;-66
2023/02/02 12:30:53;;;;;;;;;1.75;0.75;;;;;13.16;100.00;102929.41;4913396;28;50953;-66
2023/02/02 12:33:29;;;;;;;;;2.75;1.50;;;;;13.20;100.00;102920.81;4914050;28;49662;-66
2023/02/02 12:36:19;;;;;;;;;1.00;1.00;;;;;13.02;100.00;102886.59;4914031;28;50082;-65
2023/02/02 12:39:06;;;;;;;;;1.00;1.00;;;;;13.11;100.00;102921.28;4914114;28;51124;-65
2023/02/02 12:41:46;;;;;;;;;2.00;1.00;;;;;13.20;100.00;102923.47;4913666;28;49756;-65
2023/02/02 12:44:28;;;;;;;;;2.00;2.00;;;;;13.16;100.00;102917.13;4913390;28;49880;-68
2023/02/02 12:47:16;;;;;;;;;3.75;1.00;;;;;13.17;100.00;102918.03;4913832;28;49985;-65
2023/02/02 12:49:56;;;;;;;;;3.75;3.00;;;;;13.15;100.00;102914.44;4913519;28;50017;-65
2023/02/02 12:52:30;;;;;;;;;1.25;0.75;;;;;13.10;100.00;102916.84;4913557;28;49646;-65
2023/02/02 12:55:01;;;;;;;;;2.00;2.00;;;;;13.14;100.00;102915.25;4903815;28;49813;-65
2023/02/02 12:58:00;;;;;;;;;2.00;2.00;;;;;13.20;100.00;102907.63;4912991;28;49923;-65
2023/02/02 13:00:54;;;;;;;;;3.25;2.00;;;;;13.15;100.00;102901.25;4912428;28;50823;-66
2023/02/02 13:03:34;;;;;;;;;2.75;1.25;;;;;12.96;100.00;102861.69;4911207;28;49740;-65
2023/02/02 13:06:28;;;;;;;;;2.00;1.00;;;;;12.90;100.00;102842.13;4912847;28;50136;-66
2023/02/02 13:09:02;;;;;;;;;1.00;1.00;;;;;13.31;100.00;102893.19;4908431;28;49994;-64
2023/02/02 13:11:30;;;;;;;;;2.25;2.25;;;;;12.89;100.00;102849.97;4912624;28;51028;-65
2023/02/02 13:14:07;;;;;;;;;1.25;1.25;;;;;12.80;100.00;102831.13;4911121;28;49788;-65
2023/02/02 13:16:36;;;;;;;;;2.25;2.00;;;;;12.85;100.00;102840.16;4912617;28;49820;-65
2023/02/02 13:19:10;;;;;;;;;3.00;1.75;;;;;12.96;100.00;102869.63;4912408;28;49891;-65
2023/02/02 13:21:38;;;;;;;;;0.00;0.00;;;;;12.93;100.00;102857.16;4911073;28;52695;-66
2023/02/02 13:24:09;;;;;;;;;2.00;1.00;;;;;12.68;100.00;102843.75;4911863;28;49700;-65
2023/02/02 13:26:39;;;;;;;;;4.00;2.00;;;;;12.98;100.00;102895.22;4911644;28;49795;-65
2023/02/02 13:29:18;;;;;;;;;1.50;1.50;;;;;12.55;100.00;102851.09;4910806;28;49762;-65
2023/02/02 13:31:58;;;;;;;;;1.50;1.50;;;;;12.05;100.00;102753.94;4912425;28;50973;-65
2023/02/02 13:34:51;;;;;;;;;5.00;2.00;;;;;12.42;100.00;102818.84;4912346;28;49778;-65
2023/02/02 13:37:25;;;;;;;;;4.00;2.00;;;;;12.82;100.00;102906.78;4912875;28;49676;-65
2023/02/02 13:39:59;;;;;;;;;2.50;2.50;;;;;12.52;100.00;102855.31;4912829;28;49787;-66
2023/02/02 13:42:35;;;;;;;;;1.50;1.50;;;;;12.70;100.00;102907.97;4912457;28;50086;-66
2023/02/02 13:45:26;;;;;;;;;0.00;0.00;;;;;12.73;100.00;102900.19;4912316;28;49825;-69
2023/02/02 13:48:03;;;;;;;;;3.25;1.50;;;;;12.56;100.00;102868.72;4910919;28;50370;-69
2023/02/02 13:50:36;;;;;;;;;4.50;1.50;;;;;12.50;100.00;102851.72;4912477;28;49850;-70
2023/02/02 13:53:33;;;;;;;;;3.00;3.00;;;;;12.04;100.00;102774.09;4910994;28;51701;-71
2023/02/02 13:56:29;;;;;;;;;1.25;1.00;;;;;12.71;100.00;102901.84;4911858;28;49692;-70
2023/02/02 13:59:20;;;;;;;;;2.00;1.25;;;;;10.55;100.00;102546.91;4909168;28;49767;-69
2023/02/02 14:01:49;;;;;;;;;2.00;2.00;;;;;12.71;100.00;102896.59;4911214;28;49720;-69
2023/02/02 14:04:22;;;;;;;;;4.50;2.00;;;;;12.54;100.00;102872.97;4912272;28;50827;-70
2023/02/02 14:06:55;;;;;;;;;4.75;1.75;;;;;12.20;100.00;102822.22;4912036;28;49817;-70
2023/02/02 14:09:20;;;;;;;;;2.00;2.00;;;;;11.47;100.00;102728.38;4912522;28;50077;-70
2023/02/02 14:11:57;;;;;;;;;4.00;2.00;;;;;12.31;100.00;102842.94;4912173;28;49743;-69
2023/02/02 14:14:32;;;;;;;;;3.75;3.00;;;;;12.39;100.00;102858.22;4910412;28;51665;-69
2023/02/02 14:17:12;;;;;;;;;2.00;2.00;;;;;12.33;100.00;102851.81;4914655;28;49768;-70
2023/02/02 14:19:37;;;;;;;;;2.75;2.75;;;;;12.66;100.00;102904.28;4910213;28;49945;-71
2023/02/02 14:22:08;;;;;;;;;3.00;2.00;;;;;12.43;100.00;102868.94;4910829;28;49728;-71
2023/02/02 14:24:33;;;;;;;;;3.25;3.00;;;;;12.63;100.00;102903.22;4909636;28;51441;-70
2023/02/02 14:27:01;;;;;;;;;2.00;2.00;;;;;12.21;100.00;102827.56;4910094;28;49809;-70
2023/02/02 14:29:34;;;;;;;;;3.75;2.00;;;;;12.63;100.00;102901.50;4908844;28;50259;-70
2023/02/02 14:32:22;;;;;;;;;3.25;3.25;;;;;12.60;100.00;102914.53;4911845;28;49667;-69
2023/02/02 14:34:48;;;;;;;;;3.00;1.25;;;;;12.38;100.00;102859.94;4909488;28;50813;-70
2023/02/02 14:37:22;;;;;;;;;2.75;2.25;;;;;12.58;100.00;102905.66;4911852;28;49868;-70
2023/02/02 14:40:07;;;;;;;;;4.00;4.00;;;;;12.54;100.00;102909.88;4918815;28;49702;-69
2023/02/02 14:45:31;;;;;;;;;9.50;8.00;;;;;11.93;100.00;102817.44;4914318;28;50558;-70
2023/02/02 14:48:05;;;;;;;;;2.50;2.25;;;;;12.54;100.00;102909.88;4914218;28;49840;-69
2023/02/02 14:50:36;;;;;;;;;3.00;3.00;;;;;12.55;100.00;102908.16;4914576;28;49758;-68
2023/02/02 14:53:16;;;;;;;;;1.75;1.25;;;;;12.29;100.00;102872.69;4922294;28;49801;-69
2023/02/02 14:56:03;;;;;;;;;1.00;1.00;;;;;12.52;100.00;102906.25;4922157;28;50495;-68
2023/02/02 14:58:32;;;;;;;;;7.50;6.75;;;;;12.33;100.00;102875.53;4914614;28;49704;-68
2023/02/02 15:01:07;;;;;;;;;9.25;7.50;;;;;12.45;100.00;102911.16;4912513;28;49903;-68
2023/02/02 15:03:42;;;;;;;;;3.00;3.00;;;;;12.54;100.00;102916.88;4909750;28;49722;-69
2023/02/02 15:06:34;;;;;;;;;15.25;10.50;;;;;12.23;100.00;102894.34;4914880;28;49970;-67
2023/02/02 15:09:18;;;;;;;;;3.00;2.00;;;;;12.53;100.00;102923.88;4913879;28;49699;-68
2023/02/02 15:12:01;;;;;;;;;0.50;0.50;;;;;12.56;100.00;102913.50;4917010;28;49848;-71
2023/02/02 15:14:35;;;;;;;;;1.00;1.00;;;;;11.24;100.00;102718.47;4913374;28;50062;-67
2023/02/02 15:17:11;;;;;;;;;0.00;0.00;;;;;12.17;100.00;102858.94;4913106;28;51244;-64
2023/02/02 15:19:43;;;;;;;;;1.25;1.25;;;;;12.12;100.00;102850.81;4914083;28;49920;-67
2023/02/02 15:22:40;;;;;;;;;2.25;2.25;;;;;12.18;100.00;102869.56;4913858;28;50090;-68
2023/02/02 15:25:41;;;;;;;;;0.50;0.50;;;;;12.38;100.00;102928.44;4921773;28;50044;-66
2023/02/02 15:28:10;;;;;;;;;0.00;0.00;;;;;12.41;100.00;102930.31;4898005;28;52607;-69
2023/02/02 15:30:36;;;;;;;;;1.00;0.00;;;;;11.86;100.00;102833.75;4909456;28;49862;-70
2023/02/02 15:33:18;;;;;;;;;1.75;1.00;;;;;12.07;100.00;102885.66;4922238;28;49734;-66
2023/02/02 15:35:46;;;;;;;;;1.00;1.00;;;;;11.55;100.00;102778.72;4917424;28;49693;-65
2023/02/02 15:38:16;;;;;;;;;3.75;3.00;;;;;11.80;100.00;102833.47;4910922;28;49784;-68
2023/02/02 15:40:42;;;;;;;;;1.00;1.00;;;;;10.94;100.00;102714.31;4913865;28;49764;-66
2023/02/02 15:43:09;;;;;;;;;1.00;1.00;;;;;12.23;100.00;102922.41;4915363;28;50544;-66
2023/02/02 15:45:42;;;;;;;;;2.50;0.75;;;;;11.55;100.00;102819.91;4921593;28;49838;-66
2023/02/02 15:48:29;;;;;;;;;2.00;1.00;;;;;12.04;100.00;102897.81;4914073;28;49956;-65
2023/02/02 15:50:58;;;;;;;;;0.25;0.25;;;;;11.80;100.00;102877.31;4920610;28;49795;-67
2023/02/02 15:53:39;;;;;;;;;2.00;2.00;;;;;11.70;100.00;102863.66;4914145;28;49956;-67
2023/02/02 15:56:22;;;;;;;;;0.75;0.75;;;;;11.70;100.00;102886.44;4907333;28;50057;-65
2023/02/02 15:58:50;;;;;;;;;1.00;1.00;;;;;11.65;100.00;102880.94;4913262;28;50039;-66
2023/02/02 16:01:19;;;;;;;;;1.00;1.00;;;;;12.12;100.00;102971.94;4911668;28;49773;-66
2023/02/02 16:03:55;;;;;;;;;1.00;0.50;;;;;12.13;100.00;102992.16;4913375;28;49875;-68
2023/02/02 16:06:21;;;;;;;;;1.00;1.00;;;;;12.12;100.00;103002.63;4909115;28;50867;-65
2023/02/02 16:08:47;;;;;;;;;2.25;2.00;;;;;12.08;100.00;102984.88;4912159;28;50276;-66
2023/02/02 16:11:16;;;;;;;;;1.25;1.00;;;;;11.60;100.00;102887.72;4913385;28;49658;-64
2023/02/02 16:13:55;;;;;;;;;1.00;1.00;;;;;11.77;100.00;102941.16;4923606;28;49798;-65
2023/02/02 16:16:30;;;;;;;;;2.00;0.75;;;;;11.36;100.00;102884.72;4926989;28;49390;-68
2023/02/02 16:19:07;;;;;;;;;1.00;1.00;;;;;11.90;100.00;102993.66;4919299;28;49734;-66
2023/02/02 16:21:37;;;;;;;;;1.00;1.00;;;;;11.86;100.00;102990.75;4916879;28;49955;-68
2023/02/02 16:24:12;;;;;;;;;1.25;1.25;;;;;11.73;100.00;103005.00;4911403;28;49735;-66
2023/02/02 16:26:38;;;;;;;;;2.00;2.00;;;;;11.47;100.00;102940.50;4909376;28;49907;-66
2023/02/02 16:29:04;;;;;;;;;1.25;0.00;;;;;11.83;100.00;103001.16;4914043;28;50426;-70
2023/02/02 16:31:31;;;;;;;;;2.50;1.50;;;;;10.96;100.00;102855.47;4912611;28;49642;-66
2023/02/02 16:33:59;;;;;;;;;1.00;1.00;;;;;11.30;100.00;102922.97;4913017;28;49958;-68
2023/02/02 16:36:28;;;;;;;;;1.00;1.00;;;;;11.47;100.00;102978.22;4907540;28;49859;-67
2023/02/02 16:38:56;;;;;;;;;0.00;0.00;;;;;11.31;100.00;102932.66;4913930;28;49834;-66
2023/02/02 16:41:28;;;;;;;;;1.75;1.75;;;;;10.84;100.00;102875.84;4913281;28;49778;-66
2023/02/02 16:43:53;;;;;;;;;1.00;1.00;;;;;11.32;100.00;102943.25;4913009;28;50101;-66
2023/02/02 16:46:46;;;;;;;;;2.00;1.00;;;;;11.75;100.00;103033.19;4913465;28;49775;-69
2023/02/02 16:49:17;;;;;;;;;1.50;1.50;;;;;11.72;100.00;103051.47;4915260;28;49964;-68
2023/02/02 16:51:45;;;;;;;;;1.00;1.00;;;;;11.09;100.00;102941.13;4912946;28;49785;-69
2023/02/02 16:54:18;;;;;;;;;2.00;2.00;;;;;10.83;100.00;102892.44;4913281;28;49575;-69
2023/02/02 16:56:48;;;;;;;;;2.00;2.00;;;;;11.30;100.00;102971.19;4913218;28;49664;-68
2023/02/02 16:59:33;;;;;;;;;3.00;1.75;;;;;11.26;100.00;102989.34;4911483;28;51622;-70
2023/02/02 17:02:14;;;;;;;;;1.00;1.00;;;;;10.70;100.00;102869.84;4910659;28;49937;-70
2023/02/02 17:04:44;;;;;;;;;2.25;1.00;;;;;10.01;100.00;102781.16;4913851;28;49916;-71
2023/02/02 17:07:13;;;;;;;;;1.00;1.00;;;;;11.36;100.00;103024.09;4911866;28;50214;-74
2023/02/02 17:09:40;;;;;;;;;0.25;0.25;;;;;11.60;100.00;103063.06;4913558;28;49850;-68
2023/02/02 17:12:21;;;;;;;;;1.00;1.00;;;;;11.59;100.00;103048.13;4912909;28;49779;-73
2023/02/02 17:14:54;;;;;;;;;1.00;1.00;;;;;10.95;100.00;102937.75;4912731;28;50069;-73
2023/02/02 17:17:19;;;;;;;;;2.00;2.00;;;;;10.20;100.00;102843.44;4912963;28;49784;-71
2023/02/02 17:19:46;;;;;;;;;2.00;2.00;;;;;10.75;100.00;102907.78;4913482;28;49726;-70
2023/02/02 17:22:14;;;;;;;;;4.00;3.00;;;;;11.11;100.00;102977.19;4914000;28;49845;-71
2023/02/02 17:24:45;;;;;;;;;3.50;3.50;;;;;11.42;100.00;103041.94;4920277;28;49605;-70
2023/02/02 17:27:29;;;;;;;;;1.50;1.00;;;;;10.03;100.00;102853.88;4919812;28;50209;-68
2023/02/02 17:29:56;;;;;;;;;1.00;1.00;;;;;11.00;100.00;102986.25;4917681;28;50026;-72
2023/02/02 17:32:23;;;;;;;;;2.25;1.00;;;;;9.61;100.00;102744.81;4906990;28;49735;-73
2023/02/02 17:34:49;;;;;;;;;4.75;2.50;;;;;11.13;100.00;103003.56;4906497;28;50230;-72
2023/02/02 17:37:14;;;;;;;;;1.75;1.75;;;;;10.95;100.00;102966.66;4912929;28;49918;-67
2023/02/02 17:39:39;;;;;;;;;2.00;2.00;;;;;11.08;100.00;103019.06;4912480;28;49954;-69
2023/02/02 17:42:12;;;;;;;;;2.25;2.25;;;;;10.28;100.00;102899.91;4912894;28;49609;-70
2023/02/02 17:44:38;;;;;;;;;1.75;1.75;;;;;10.88;100.00;102969.78;4912507;28;49715;-69
2023/02/02 17:47:11;;;;;;;;;1.00;1.00;;;;;9.94;100.00;102850.75;4913074;28;49763;-70
2023/02/02 17:49:37;;;;;;;;;4.25;2.00;;;;;11.35;100.00;103047.69;4915027;28;49747;-69
2023/02/02 17:52:02;;;;;;;;;5.50;4.50;;;;;11.10;100.00;103024.44;4918371;28;50197;-69
2023/02/02 17:54:28;;;;;;;;;2.75;2.50;;;;;11.22;100.00;103037.34;4916516;28;49987;-70
2023/02/02 17:56:53;;;;;;;;;2.00;2.00;;;;;10.79;100.00;102949.16;4918533;28;50170;-67
2023/02/02 17:59:18;;;;;;;;;4.00;3.00;;;;;10.72;100.00;102939.16;4917875;28;50860;-68
2023/02/02 18:01:44;;;;;;;;;3.00;3.00;;;;;11.39;100.00;103061.09;4919528;28;49810;-67
2023/02/02 18:04:13;;;;;;;;;3.00;2.00;;;;;11.00;100.00;102990.56;4921955;28;50249;-67
2023/02/02 18:06:38;;;;;;;;;6.00;4.00;;;;;11.37;100.00;103064.44;4916670;28;50021;-70
2023/02/02 18:09:04;;;;;;;;;5.25;2.50;;;;;10.55;100.00;102925.09;4915901;28;49873;-70
2023/02/02 18:11:30;;;;;;;;;3.25;3.25;;;;;11.01;100.00;102992.41;4912242;28;49734;-70
2023/02/02 18:13:55;;;;;;;;;2.75;2.75;;;;;11.34;100.00;103051.16;4915105;28;49782;-69
2023/02/02 18:16:21;;;;;;;;;8.00;5.25;;;;;11.29;100.00;103039.47;4915853;28;49895;-69
2023/02/02 18:18:46;;;;;;;;;4.00;4.00;;;;;10.99;100.00;102983.50;4914886;28;50887;-70